Hilbert, Wisconsin
Current Conditions -  °F | °C
As of 12:35 AM on Tuesday 21 Oct 2014 (Local Time) from KATW Reporting Station
Overcast Overcast  
Wind Chill: 39°   Ceiling: 5000
Heat Index: 45°   Visibility: 10mi
Dew Point: 36°   Wind: 12mph
Humidity: 71%   Direction: 350°N
Pressure: 30.05"   Gusts: 18mph
Location:  44.14°N, 88.16°W
Report Text: KATW 210535Z AUTO 35010G16KT 10SM OVC050 07/02 A3005 RMK AO2
Loading
Personal Weather Stations






























Interactive Weather Map
Tropical Storm Tracking
New forecast layout! Learn more

10-Day Weather Forecast

Advertisements
Track Severe Weather on mobile